createdAt,value
2023-01-17T00:00:48.153Z,92.07
2023-01-17T00:03:20.761Z,93.22
2023-01-17T00:06:08.487Z,100.53
2023-01-17T00:08:56.271Z,105.43
2023-01-17T00:11:28.988Z,103.35
2023-01-17T00:14:01.645Z,117.68
2023-01-17T00:16:34.349Z,103.82
2023-01-17T00:19:22.875Z,103.50
2023-01-17T00:22:10.597Z,102.97
2023-01-17T00:24:58.167Z,103.55
2023-01-17T00:27:31.171Z,97.25
2023-01-17T00:30:03.922Z,96.10
2023-01-17T00:32:36.588Z,93.72
2023-01-17T00:35:09.328Z,109.50
2023-01-17T00:37:42.016Z,105.50
2023-01-17T00:40:15.065Z,96.68
2023-01-17T00:42:48.319Z,100.35
2023-01-17T00:45:36.591Z,97.50
2023-01-17T00:48:25.027Z,107.65
2023-01-17T00:51:13.523Z,99.70
2023-01-17T00:54:01.652Z,102.63
2023-01-17T00:56:49.868Z,93.97
2023-01-17T00:59:37.484Z,105.43
2023-01-17T01:02:27.595Z,93.93
2023-01-17T01:05:17.126Z,103.13
2023-01-17T01:08:05.680Z,86.18
2023-01-17T01:10:54.271Z,92.82
2023-01-17T01:13:43.788Z,99.32
2023-01-17T01:16:33.343Z,96.90
2023-01-17T01:19:21.577Z,99.22
2023-01-17T01:22:09.989Z,105.25
2023-01-17T01:24:58.280Z,116.45
2023-01-17T01:27:46.065Z,95.93
2023-01-17T01:30:33.832Z,109.07
2023-01-17T01:33:19.185Z,107.35
2023-01-17T01:35:54.204Z,98.93
2023-01-17T01:38:27.038Z,103.28
2023-01-17T01:40:59.636Z,105.13
2023-01-17T01:43:50.260Z,103.43
2023-01-17T01:46:37.360Z,101.10
2023-01-17T01:49:28.554Z,108.70
2023-01-17T01:52:05.714Z,104.40
2023-01-17T01:54:43.405Z,112.28
2023-01-17T01:57:19.036Z,97.07
2023-01-17T01:59:59.073Z,108.18
2023-01-17T02:02:32.166Z,115.30
2023-01-17T02:05:05.330Z,109.85
2023-01-17T02:07:45.093Z,113.72
2023-01-17T02:10:18.000Z,108.15
2023-01-17T02:12:53.000Z,102.43
2023-01-17T02:15:37.004Z,113.45
2023-01-17T02:18:36.488Z,103.65
2023-01-17T02:21:29.321Z,102.07
2023-01-17T02:24:18.046Z,111.35
2023-01-17T02:26:56.747Z,105.63
2023-01-17T02:29:43.046Z,104.70
2023-01-17T02:32:37.914Z,104.25
2023-01-17T02:35:28.233Z,95.88
2023-01-17T02:38:10.672Z,95.75
2023-01-17T02:40:52.429Z,91.32
2023-01-17T02:43:25.232Z,88.90
2023-01-17T02:45:57.806Z,105.18
2023-01-17T02:48:33.521Z,100.65
2023-01-17T02:51:17.908Z,101.63
2023-01-17T02:54:09.154Z,93.50
2023-01-17T02:56:49.273Z,81.50
2023-01-17T02:59:44.071Z,80.30
2023-01-17T03:02:24.129Z,80.95
2023-01-17T03:05:09.312Z,83.28
2023-01-17T03:07:44.478Z,75.57
2023-01-17T03:10:18.873Z,77.20
2023-01-17T03:12:56.920Z,85.50
2023-01-17T03:15:29.631Z,87.25
2023-01-17T03:18:06.089Z,80.78
2023-01-17T03:20:39.278Z,84.97
2023-01-17T03:23:11.793Z,86.05
2023-01-17T03:25:44.273Z,78.03
2023-01-17T03:28:16.804Z,79.18
2023-01-17T03:30:49.424Z,76.35
2023-01-17T03:33:22.115Z,83.38
2023-01-17T03:35:58.207Z,89.63
2023-01-17T03:38:30.790Z,80.45
2023-01-17T03:41:03.505Z,65.68
2023-01-17T03:43:36.052Z,75.43
2023-01-17T03:46:22.993Z,75.63
2023-01-17T03:48:55.536Z,84.90
2023-01-17T03:51:28.152Z,78.72
2023-01-17T03:54:00.932Z,77.85
2023-01-17T03:56:33.487Z,79.10
2023-01-17T03:59:05.947Z,78.90
2023-01-17T04:01:38.707Z,71.15
2023-01-17T04:04:11.477Z,68.63
2023-01-17T04:06:45.067Z,70.40
2023-01-17T04:09:17.684Z,66.38
2023-01-17T04:11:51.143Z,74.05
2023-01-17T04:14:23.632Z,72.10
2023-01-17T04:16:56.562Z,70.00
2023-01-17T04:19:37.153Z,71.03
2023-01-17T04:22:09.588Z,71.40
2023-01-17T04:24:42.068Z,70.13
2023-01-17T04:27:14.645Z,69.57
2023-01-17T04:29:47.271Z,76.80
2023-01-17T04:32:19.754Z,66.85
2023-01-17T04:34:52.388Z,65.80
2023-01-17T04:37:25.152Z,71.63
2023-01-17T04:39:57.597Z,68.03
2023-01-17T04:42:30.108Z,73.07
2023-01-17T04:45:02.762Z,71.18
2023-01-17T04:47:35.395Z,72.53
2023-01-17T04:50:09.250Z,74.53
2023-01-17T04:52:41.832Z,78.53
2023-01-17T04:55:14.477Z,77.45
2023-01-17T04:57:48.357Z,77.90
2023-01-17T05:00:23.339Z,82.15
2023-01-17T05:02:57.042Z,81.90
2023-01-17T05:05:29.678Z,75.75
2023-01-17T05:08:02.312Z,81.50
2023-01-17T05:10:34.834Z,80.72
2023-01-17T05:13:07.798Z,76.55
2023-01-17T05:15:40.670Z,83.72
2023-01-17T05:18:16.364Z,82.85
2023-01-17T05:20:48.969Z,76.40
2023-01-17T05:23:21.567Z,82.93
2023-01-17T05:25:54.077Z,81.40
2023-01-17T05:28:26.595Z,84.55
2023-01-17T05:30:59.154Z,76.63
2023-01-17T05:33:32.395Z,82.20
2023-01-17T05:36:05.147Z,84.20
2023-01-17T05:38:37.694Z,82.00
2023-01-17T05:41:10.235Z,76.97
2023-01-17T05:43:42.753Z,82.00
2023-01-17T05:46:16.377Z,85.47
2023-01-17T05:48:48.962Z,83.70
2023-01-17T05:51:21.568Z,91.75
2023-01-17T05:53:54.133Z,85.18
2023-01-17T05:56:26.630Z,94.07
2023-01-17T05:58:59.225Z,93.00
2023-01-17T06:01:31.803Z,97.72
2023-01-17T06:04:04.470Z,104.57
2023-01-17T06:06:37.029Z,92.07
2023-01-17T06:09:10.696Z,102.03
2023-01-17T06:11:43.206Z,103.05
2023-01-17T06:14:15.632Z,100.72
2023-01-17T06:16:48.110Z,86.53
2023-01-17T06:19:20.671Z,101.35
2023-01-17T06:21:53.144Z,91.95
2023-01-17T06:24:25.835Z,92.20
2023-01-17T06:26:58.585Z,94.22
2023-01-17T06:29:31.194Z,103.95
2023-01-17T06:32:04.416Z,97.93
2023-01-17T06:34:38.561Z,111.45
2023-01-17T06:37:11.459Z,104.93
2023-01-17T06:39:44.316Z,105.32
2023-01-17T06:42:17.042Z,101.95
2023-01-17T06:44:49.892Z,114.85
2023-01-17T06:47:22.819Z,112.28
2023-01-17T06:49:55.347Z,123.00
2023-01-17T06:52:27.746Z,111.55
2023-01-17T06:55:00.274Z,111.28
2023-01-17T06:57:33.197Z,100.57
2023-01-17T07:00:06.799Z,103.38
2023-01-17T07:02:39.419Z,101.13
2023-01-17T07:05:12.130Z,112.10
2023-01-17T07:07:46.253Z,108.03
2023-01-17T07:10:19.070Z,123.57
2023-01-17T07:12:51.716Z,117.75
2023-01-17T07:15:24.320Z,117.35
2023-01-17T07:17:56.962Z,124.32
2023-01-17T07:20:29.926Z,117.45
2023-01-17T07:23:02.437Z,126.40
2023-01-17T07:25:35.080Z,131.02
2023-01-17T07:28:07.733Z,140.55
2023-01-17T07:30:40.403Z,136.20
2023-01-17T07:33:13.159Z,131.75
2023-01-17T07:35:46.120Z,149.73
2023-01-17T07:38:20.105Z,157.82
2023-01-17T07:40:52.624Z,170.60
2023-01-17T07:43:25.223Z,161.13
2023-01-17T07:46:01.268Z,167.70
2023-01-17T07:48:35.196Z,171.95
2023-01-17T07:51:09.172Z,185.18
2023-01-17T07:53:41.782Z,178.25
2023-01-17T07:56:14.432Z,162.48
2023-01-17T07:58:48.732Z,159.95
2023-01-17T08:01:21.313Z,168.13
2023-01-17T08:03:55.034Z,159.45
2023-01-17T08:06:29.498Z,145.13
2023-01-17T08:09:02.039Z,143.57
2023-01-17T08:11:34.808Z,154.20
2023-01-17T08:14:07.443Z,148.48
2023-01-17T08:16:40.393Z,147.38
2023-01-17T08:19:13.082Z,138.60
2023-01-17T08:21:45.828Z,137.68
2023-01-17T08:24:18.391Z,124.85
2023-01-17T08:26:51.147Z,140.70
2023-01-17T08:29:24.474Z,120.90
2023-01-17T08:31:57.406Z,115.50
2023-01-17T08:34:30.247Z,111.65
2023-01-17T08:37:02.951Z,108.05
2023-01-17T08:39:35.861Z,104.25
2023-01-17T08:42:08.399Z,105.75
2023-01-17T08:44:40.992Z,106.75
2023-01-17T08:47:13.580Z,93.85
2023-01-17T08:49:46.152Z,100.53
2023-01-17T08:52:18.849Z,101.72
2023-01-17T08:54:53.759Z,94.75
2023-01-17T08:57:26.439Z,98.68
2023-01-17T08:59:59.356Z,96.78
2023-01-17T09:02:32.052Z,93.32
2023-01-17T09:05:05.162Z,93.68
2023-01-17T09:07:37.830Z,98.30
2023-01-17T09:10:11.468Z,100.60
2023-01-17T09:12:44.055Z,105.65
2023-01-17T09:15:20.314Z,99.93
2023-01-17T09:17:56.732Z,100.50
2023-01-17T09:20:30.997Z,99.30
2023-01-17T09:23:04.529Z,82.20
2023-01-17T09:25:37.337Z,108.85
2023-01-17T09:28:09.856Z,107.38
2023-01-17T09:30:42.438Z,102.85
2023-01-17T09:33:17.974Z,76.90
2023-01-17T09:35:50.556Z,111.22
2023-01-17T09:38:24.149Z,110.75
2023-01-17T09:40:56.948Z,115.00
2023-01-17T09:43:41.059Z,114.18
2023-01-17T09:46:22.818Z,112.25
2023-01-17T09:49:17.424Z,123.50
2023-01-17T09:51:50.194Z,121.07
2023-01-17T09:54:25.739Z,117.38
2023-01-17T09:57:04.215Z,115.55
2023-01-17T09:59:42.849Z,123.32
2023-01-17T10:02:25.818Z,121.05
2023-01-17T10:05:14.883Z,115.60
2023-01-17T10:08:15.930Z,109.65
2023-01-17T10:11:08.440Z,105.28
2023-01-17T10:14:02.436Z,107.07
2023-01-17T10:16:44.740Z,104.75
2023-01-17T10:19:32.818Z,110.13
2023-01-17T10:22:16.160Z,107.30
2023-01-17T10:25:19.528Z,118.15
2023-01-17T10:28:05.331Z,105.57
2023-01-17T10:30:43.584Z,109.38
2023-01-17T10:33:29.572Z,106.75
2023-01-17T10:36:07.911Z,105.72
2023-01-17T10:38:44.864Z,105.10
2023-01-17T10:41:22.979Z,109.55
2023-01-17T10:44:09.909Z,104.38
2023-01-17T10:46:48.150Z,99.82
2023-01-17T10:49:24.189Z,94.88
2023-01-17T10:52:27.789Z,103.60
2023-01-17T10:55:05.326Z,99.75
2023-01-17T10:57:42.610Z,112.68
2023-01-17T11:00:32.284Z,101.82
2023-01-17T11:03:05.076Z,104.63
2023-01-17T11:05:37.893Z,102.75
2023-01-17T11:08:13.678Z,102.13
2023-01-17T11:10:49.105Z,98.30
2023-01-17T11:13:30.743Z,93.00
2023-01-17T11:16:06.606Z,88.65
2023-01-17T11:18:40.443Z,96.03
2023-01-17T11:21:17.787Z,85.57
2023-01-17T11:23:56.884Z,79.20
2023-01-17T11:26:32.030Z,74.85
2023-01-17T11:29:29.033Z,85.78
2023-01-17T11:32:22.588Z,76.65
2023-01-17T11:35:14.028Z,61.10
2023-01-17T11:38:10.384Z,59.67
2023-01-17T11:40:47.771Z,61.55
2023-01-17T11:43:24.920Z,59.95
2023-01-17T11:46:05.564Z,55.72
2023-01-17T11:48:39.948Z,57.20
2023-01-17T11:51:32.104Z,71.47
2023-01-17T11:54:29.785Z,61.85
2023-01-17T11:57:03.115Z,61.75
2023-01-17T11:59:38.024Z,71.43
2023-01-17T12:02:32.109Z,51.13
2023-01-17T12:05:34.032Z,54.53
2023-01-17T12:08:07.983Z,65.13
2023-01-17T12:11:05.418Z,63.20
2023-01-17T12:14:02.477Z,58.92
2023-01-17T12:16:56.572Z,57.03
2023-01-17T12:20:01.068Z,51.55
2023-01-17T12:22:49.532Z,51.38
2023-01-17T12:25:25.639Z,51.97
2023-01-17T12:28:21.388Z,59.15
2023-01-17T12:31:22.497Z,48.95
2023-01-17T12:34:04.609Z,47.35
2023-01-17T12:36:49.752Z,47.28
2023-01-17T12:39:27.605Z,41.35
2023-01-17T12:42:09.503Z,46.17
2023-01-17T12:44:54.419Z,43.72
2023-01-17T12:47:26.945Z,53.13
2023-01-17T12:50:26.342Z,43.08
2023-01-17T12:53:06.120Z,42.45
2023-01-17T12:55:58.948Z,48.58
2023-01-17T12:58:40.078Z,37.03
2023-01-17T13:01:30.114Z,58.58
2023-01-17T13:04:19.891Z,55.10
2023-01-17T13:07:01.115Z,37.28
2023-01-17T13:09:41.831Z,33.22
2023-01-17T13:12:18.322Z,39.70
2023-01-17T13:14:51.415Z,31.52
2023-01-17T13:17:35.143Z,32.35
2023-01-17T13:20:19.538Z,36.38
2023-01-17T13:22:54.073Z,35.42
2023-01-17T13:25:38.092Z,45.55
2023-01-17T13:28:15.532Z,41.60
2023-01-17T13:31:01.983Z,38.30
2023-01-17T13:33:47.913Z,41.17
2023-01-17T13:36:33.804Z,36.08
2023-01-17T13:39:30.336Z,40.22
2023-01-17T13:42:15.198Z,32.17
2023-01-17T13:44:48.059Z,27.38
2023-01-17T13:47:23.674Z,27.00
2023-01-17T13:49:56.882Z,23.42
2023-01-17T13:52:33.172Z,25.95
2023-01-17T13:55:07.471Z,24.77
2023-01-17T13:57:42.637Z,31.15
2023-01-17T14:00:22.421Z,22.90
2023-01-17T14:02:55.759Z,23.33
2023-01-17T14:05:32.238Z,20.92
2023-01-17T14:08:13.526Z,18.08
2023-01-17T14:10:50.841Z,18.08
2023-01-17T14:13:40.405Z,16.10
2023-01-17T14:16:29.340Z,24.55
2023-01-17T14:19:02.570Z,14.88
2023-01-17T14:21:36.804Z,16.88
2023-01-17T14:24:11.068Z,14.45
2023-01-17T14:26:47.695Z,35.40
2023-01-17T14:29:44.572Z,13.13
2023-01-17T14:32:21.939Z,12.65
2023-01-17T14:34:57.435Z,13.57
2023-01-17T14:37:39.059Z,15.45
2023-01-17T14:40:19.646Z,13.07
2023-01-17T14:43:01.944Z,14.38
2023-01-17T14:45:36.003Z,12.80
2023-01-17T14:48:19.464Z,11.17
2023-01-17T14:50:54.463Z,22.98
2023-01-17T14:53:31.473Z,23.50
2023-01-17T14:56:14.736Z,16.92
2023-01-17T14:58:47.375Z,12.15
2023-01-17T15:01:20.996Z,197.27
2023-01-17T15:03:55.511Z,41.45
2023-01-17T15:06:46.801Z,45.88
2023-01-17T15:09:24.257Z,12.73
2023-01-17T15:11:58.589Z,14.52
2023-01-17T15:14:36.866Z,26.45
2023-01-17T15:17:12.104Z,10.27
2023-01-17T15:19:46.168Z,10.85
2023-01-17T15:22:19.991Z,11.00
2023-01-17T15:24:53.578Z,11.75
2023-01-17T15:27:26.975Z,11.43
2023-01-17T15:30:02.656Z,12.98
2023-01-17T15:32:37.572Z,10.57
2023-01-17T15:35:18.449Z,16.17
2023-01-17T15:37:54.705Z,23.73
2023-01-17T15:40:28.355Z,10.75
2023-01-17T15:43:01.988Z,11.95
2023-01-17T15:45:36.375Z,12.15
2023-01-17T15:48:32.792Z,17.33
2023-01-17T15:51:07.377Z,12.57
2023-01-17T15:53:42.908Z,14.30
2023-01-17T15:56:31.973Z,18.15
2023-01-17T15:59:26.084Z,20.50
2023-01-17T16:01:59.572Z,20.33
2023-01-17T16:04:35.396Z,23.13
2023-01-17T16:07:20.839Z,14.43
2023-01-17T16:09:53.806Z,15.65
2023-01-17T16:12:26.421Z,18.48
2023-01-17T16:15:11.722Z,14.57
2023-01-17T16:17:50.779Z,23.65
2023-01-17T16:20:29.723Z,25.77
2023-01-17T16:23:03.479Z,30.67
2023-01-17T16:25:36.214Z,18.73
2023-01-17T16:28:08.949Z,16.38
2023-01-17T16:30:41.849Z,14.18
2023-01-17T16:33:15.451Z,27.52
2023-01-17T16:35:47.925Z,25.85
2023-01-17T16:38:20.910Z,46.95
2023-01-17T16:40:54.257Z,27.92
2023-01-17T16:43:27.144Z,52.55
2023-01-17T16:45:59.873Z,52.55
2023-01-17T16:48:32.515Z,42.05
2023-01-17T16:51:08.090Z,30.77
2023-01-17T16:53:40.743Z,20.60
2023-01-17T16:56:17.472Z,17.42
2023-01-17T16:58:53.311Z,29.40
2023-01-17T17:01:26.086Z,24.17
2023-01-17T17:03:58.750Z,21.23
2023-01-17T17:06:31.949Z,17.00
2023-01-17T17:09:04.607Z,15.43
2023-01-17T17:11:37.148Z,16.45
2023-01-17T17:14:10.123Z,18.65
2023-01-17T17:16:44.526Z,16.77
2023-01-17T17:19:17.635Z,17.02
2023-01-17T17:21:50.219Z,19.23
2023-01-17T17:24:22.995Z,15.52
2023-01-17T17:26:55.626Z,15.82
2023-01-17T17:29:28.369Z,13.45
2023-01-17T17:32:00.981Z,15.00
2023-01-17T17:34:36.902Z,15.10
2023-01-17T17:37:10.489Z,16.27
2023-01-17T17:39:44.856Z,16.08
2023-01-17T17:42:19.877Z,25.63
2023-01-17T17:44:53.784Z,17.40
2023-01-17T17:47:26.441Z,16.38
2023-01-17T17:49:59.284Z,18.55
2023-01-17T17:52:32.567Z,18.08
2023-01-17T17:55:06.144Z,15.05
2023-01-17T17:57:38.919Z,24.73
2023-01-17T18:00:12.322Z,16.50
2023-01-17T18:02:45.092Z,22.10
2023-01-17T18:05:17.793Z,18.08
2023-01-17T18:07:51.135Z,17.80
2023-01-17T18:10:24.123Z,23.40
2023-01-17T18:12:56.833Z,22.60
2023-01-17T18:15:29.577Z,20.23
2023-01-17T18:18:02.152Z,21.10
2023-01-17T18:20:34.983Z,20.55
2023-01-17T18:23:07.526Z,20.40
2023-01-17T18:25:43.439Z,18.88
2023-01-17T18:28:16.051Z,22.83
2023-01-17T18:30:48.811Z,23.42
2023-01-17T18:33:22.231Z,24.20
2023-01-17T18:35:57.531Z,24.48
2023-01-17T18:38:38.549Z,29.17
2023-01-17T18:41:16.935Z,22.65
2023-01-17T18:43:50.137Z,23.17
2023-01-17T18:46:23.531Z,21.67
2023-01-17T18:48:57.819Z,23.20
2023-01-17T18:51:32.886Z,21.77
2023-01-17T18:56:40.470Z,24.40
2023-01-17T18:59:14.534Z,23.90
2023-01-17T19:01:47.621Z,24.27
2023-01-17T19:04:20.346Z,23.42
2023-01-17T19:06:54.110Z,25.08
2023-01-17T19:09:27.232Z,27.88
2023-01-17T19:12:00.321Z,24.75
2023-01-17T19:14:33.183Z,27.98
2023-01-17T19:17:06.482Z,32.85
2023-01-17T19:19:38.972Z,40.72
2023-01-17T19:22:11.603Z,42.97
2023-01-17T19:24:44.109Z,73.78
2023-01-17T19:27:18.901Z,137.73
2023-01-17T19:29:51.503Z,195.05
2023-01-17T19:32:24.170Z,154.23
2023-01-17T19:34:58.398Z,87.60
2023-01-17T19:37:32.095Z,54.50
2023-01-17T19:40:07.876Z,45.10
2023-01-17T19:42:40.923Z,38.80
2023-01-17T19:45:14.967Z,43.70
2023-01-17T19:47:47.753Z,43.92
2023-01-17T19:50:21.362Z,44.65
2023-01-17T19:52:54.112Z,43.10
2023-01-17T19:55:26.803Z,42.20
2023-01-17T19:58:00.284Z,54.83
2023-01-17T20:00:45.884Z,56.20
2023-01-17T20:03:22.033Z,61.83
2023-01-17T20:05:58.372Z,52.78
2023-01-17T20:08:31.126Z,51.97
2023-01-17T20:11:05.618Z,50.30
2023-01-17T20:13:38.371Z,43.58
2023-01-17T20:16:14.284Z,38.67
2023-01-17T20:18:46.991Z,39.90
2023-01-17T20:21:22.987Z,44.67
2023-01-17T20:23:57.606Z,38.65
2023-01-17T20:26:35.224Z,36.78
2023-01-17T20:29:12.152Z,32.05
2023-01-17T20:31:45.555Z,33.55
2023-01-17T20:34:18.963Z,35.03
2023-01-17T20:36:51.986Z,30.90
2023-01-17T20:39:24.766Z,40.00
2023-01-17T20:41:57.923Z,31.73
2023-01-17T20:44:34.512Z,34.08
2023-01-17T20:47:07.139Z,33.75
2023-01-17T20:49:41.741Z,30.42
2023-01-17T20:52:15.395Z,28.85
2023-01-17T20:54:49.900Z,29.92
2023-01-17T20:57:22.890Z,32.53
2023-01-17T20:59:55.845Z,34.13
2023-01-17T21:02:30.074Z,29.38
2023-01-17T21:05:03.918Z,31.27
2023-01-17T21:07:36.437Z,30.85
2023-01-17T21:10:09.845Z,32.50
2023-01-17T21:12:42.540Z,30.55
2023-01-17T21:15:17.750Z,30.17
2023-01-17T21:17:50.333Z,34.08
2023-01-17T21:20:23.070Z,30.33
2023-01-17T21:22:55.576Z,33.85
2023-01-17T21:25:28.627Z,37.75
2023-01-17T21:28:01.166Z,30.80
2023-01-17T21:30:33.975Z,46.15
2023-01-17T21:33:06.459Z,31.73
2023-01-17T21:35:39.140Z,42.28
2023-01-17T21:38:12.826Z,38.97
2023-01-17T21:40:46.039Z,35.75
2023-01-17T21:43:19.669Z,29.58
2023-01-17T21:45:52.597Z,42.92
2023-01-17T21:48:25.619Z,44.58
2023-01-17T21:51:05.137Z,42.58
2023-01-17T21:53:39.899Z,70.53
2023-01-17T21:56:30.130Z,31.35
2023-01-17T21:59:02.716Z,37.78
2023-01-17T22:01:35.502Z,69.93
2023-01-17T22:04:10.257Z,46.25
2023-01-17T22:06:42.886Z,29.85
2023-01-17T22:09:16.096Z,28.17
2023-01-17T22:11:48.624Z,29.10
2023-01-17T22:14:21.359Z,26.10
2023-01-17T22:16:53.780Z,30.10
2023-01-17T22:19:26.128Z,31.67
2023-01-17T22:21:58.608Z,34.70
2023-01-17T22:24:31.266Z,30.20
2023-01-17T22:27:04.084Z,35.90
2023-01-17T22:29:38.366Z,38.58
2023-01-17T22:32:10.895Z,40.00
2023-01-17T22:34:43.341Z,34.83
2023-01-17T22:37:16.233Z,37.00
2023-01-17T22:39:48.640Z,34.63
2023-01-17T22:42:21.670Z,37.15
2023-01-17T22:44:54.436Z,32.75
2023-01-17T22:47:27.335Z,32.33
2023-01-17T22:50:00.332Z,33.42
2023-01-17T22:52:33.046Z,33.40
2023-01-17T22:55:06.309Z,39.97
2023-01-17T22:57:38.849Z,46.17
2023-01-17T23:00:14.750Z,37.60
2023-01-17T23:02:47.511Z,41.85
2023-01-17T23:05:20.413Z,33.67
2023-01-17T23:08:34.521Z,35.00
2023-01-17T23:11:38.786Z,37.58
2023-01-17T23:14:13.212Z,36.25
2023-01-17T23:17:05.504Z,34.35
2023-01-17T23:19:41.091Z,36.05
2023-01-17T23:22:19.580Z,35.50
2023-01-17T23:24:53.751Z,38.50
2023-01-17T23:27:44.577Z,35.90
2023-01-17T23:30:19.845Z,34.58
2023-01-17T23:32:54.677Z,33.05
2023-01-17T23:38:18.244Z,33.90
2023-01-17T23:41:06.509Z,33.38
2023-01-17T23:43:38.878Z,31.83
2023-01-17T23:46:12.667Z,31.17
2023-01-17T23:48:45.035Z,33.05
2023-01-17T23:51:17.465Z,30.40
2023-01-17T23:53:52.310Z,31.55
2023-01-17T23:56:25.081Z,30.45
2023-01-17T23:58:58.120Z,29.30
